sensor_id;sensor_type;location;lat;lon;timestamp;P1;durP1;ratioP1;P2;durP2;ratioP2
7074;SDS011;3578;51.568;6.932;2023-02-12T00:01:22;58.17;;;43.07;;
7074;SDS011;3578;51.568;6.932;2023-02-12T00:03:51;67.30;;;42.37;;
7074;SDS011;3578;51.568;6.932;2023-02-12T00:06:18;53.10;;;38.80;;
7074;SDS011;3578;51.568;6.932;2023-02-12T00:08:48;59.83;;;40.93;;
7074;SDS011;3578;51.568;6.932;2023-02-12T00:11:17;60.87;;;41.50;;
7074;SDS011;3578;51.568;6.932;2023-02-12T00:13:47;60.07;;;40.97;;
7074;SDS011;3578;51.568;6.932;2023-02-12T00:16:15;62.67;;;41.73;;
7074;SDS011;3578;51.568;6.932;2023-02-12T00:18:45;50.67;;;39.47;;
7074;SDS011;3578;51.568;6.932;2023-02-12T00:21:13;55.13;;;40.17;;
7074;SDS011;3578;51.568;6.932;2023-02-12T00:23:41;63.30;;;41.37;;
7074;SDS011;3578;51.568;6.932;2023-02-12T00:26:11;60.63;;;41.03;;
7074;SDS011;3578;51.568;6.932;2023-02-12T00:28:40;54.27;;;38.47;;
7074;SDS011;3578;51.568;6.932;2023-02-12T00:31:09;58.20;;;41.57;;
7074;SDS011;3578;51.568;6.932;2023-02-12T00:33:42;62.40;;;41.03;;
7074;SDS011;3578;51.568;6.932;2023-02-12T00:36:09;58.37;;;41.33;;
7074;SDS011;3578;51.568;6.932;2023-02-12T00:38:40;55.27;;;40.70;;
7074;SDS011;3578;51.568;6.932;2023-02-12T00:41:08;58.80;;;41.47;;
7074;SDS011;3578;51.568;6.932;2023-02-12T00:43:36;54.27;;;39.07;;
7074;SDS011;3578;51.568;6.932;2023-02-12T00:46:04;53.43;;;38.67;;
7074;SDS011;3578;51.568;6.932;2023-02-12T00:48:33;58.30;;;38.97;;
7074;SDS011;3578;51.568;6.932;2023-02-12T00:51:01;55.03;;;39.00;;
7074;SDS011;3578;51.568;6.932;2023-02-12T00:53:29;52.80;;;40.13;;
7074;SDS011;3578;51.568;6.932;2023-02-12T00:55:56;55.27;;;40.43;;
7074;SDS011;3578;51.568;6.932;2023-02-12T00:58:23;51.10;;;38.70;;
7074;SDS011;3578;51.568;6.932;2023-02-12T01:00:52;53.20;;;40.77;;
7074;SDS011;3578;51.568;6.932;2023-02-12T01:03:19;46.97;;;36.07;;
7074;SDS011;3578;51.568;6.932;2023-02-12T01:05:47;53.47;;;37.60;;
7074;SDS011;3578;51.568;6.932;2023-02-12T01:08:14;51.57;;;39.63;;
7074;SDS011;3578;51.568;6.932;2023-02-12T01:10:42;57.20;;;41.13;;
7074;SDS011;3578;51.568;6.932;2023-02-12T01:13:09;55.30;;;40.77;;
7074;SDS011;3578;51.568;6.932;2023-02-12T01:15:39;51.50;;;40.47;;
7074;SDS011;3578;51.568;6.932;2023-02-12T01:18:07;56.63;;;41.17;;
7074;SDS011;3578;51.568;6.932;2023-02-12T01:20:35;49.83;;;38.70;;
7074;SDS011;3578;51.568;6.932;2023-02-12T01:23:02;54.87;;;40.10;;
7074;SDS011;3578;51.568;6.932;2023-02-12T01:25:31;55.23;;;40.90;;
7074;SDS011;3578;51.568;6.932;2023-02-12T01:27:57;55.97;;;41.50;;
7074;SDS011;3578;51.568;6.932;2023-02-12T01:30:24;56.07;;;39.87;;
7074;SDS011;3578;51.568;6.932;2023-02-12T01:32:51;53.07;;;38.00;;
7074;SDS011;3578;51.568;6.932;2023-02-12T01:35:20;54.07;;;40.00;;
7074;SDS011;3578;51.568;6.932;2023-02-12T01:37:47;56.63;;;37.20;;
7074;SDS011;3578;51.568;6.932;2023-02-12T01:40:15;57.10;;;41.83;;
7074;SDS011;3578;51.568;6.932;2023-02-12T01:42:43;48.40;;;37.23;;
7074;SDS011;3578;51.568;6.932;2023-02-12T01:48:09;54.07;;;39.33;;
7074;SDS011;3578;51.568;6.932;2023-02-12T01:50:39;52.07;;;37.80;;
7074;SDS011;3578;51.568;6.932;2023-02-12T01:53:08;51.00;;;36.17;;
7074;SDS011;3578;51.568;6.932;2023-02-12T01:55:37;50.37;;;37.13;;
7074;SDS011;3578;51.568;6.932;2023-02-12T01:58:04;51.10;;;37.60;;
7074;SDS011;3578;51.568;6.932;2023-02-12T02:00:34;56.03;;;39.87;;
7074;SDS011;3578;51.568;6.932;2023-02-12T02:03:01;50.73;;;39.03;;
7074;SDS011;3578;51.568;6.932;2023-02-12T02:05:30;49.73;;;35.30;;
7074;SDS011;3578;51.568;6.932;2023-02-12T02:08:05;52.40;;;38.77;;
7074;SDS011;3578;51.568;6.932;2023-02-12T02:10:33;51.37;;;38.10;;
7074;SDS011;3578;51.568;6.932;2023-02-12T02:13:00;54.80;;;38.47;;
7074;SDS011;3578;51.568;6.932;2023-02-12T02:15:46;52.13;;;38.67;;
7074;SDS011;3578;51.568;6.932;2023-02-12T02:18:17;50.83;;;37.90;;
7074;SDS011;3578;51.568;6.932;2023-02-12T02:24:20;50.10;;;37.63;;
7074;SDS011;3578;51.568;6.932;2023-02-12T02:27:24;51.93;;;38.50;;
7074;SDS011;3578;51.568;6.932;2023-02-12T02:33:10;50.00;;;37.90;;
7074;SDS011;3578;51.568;6.932;2023-02-12T02:35:51;47.70;;;36.47;;
7074;SDS011;3578;51.568;6.932;2023-02-12T02:38:27;57.53;;;38.57;;
7074;SDS011;3578;51.568;6.932;2023-02-12T02:41:04;47.57;;;36.97;;
7074;SDS011;3578;51.568;6.932;2023-02-12T02:43:41;50.77;;;37.27;;
7074;SDS011;3578;51.568;6.932;2023-02-12T02:46:17;55.30;;;38.60;;
7074;SDS011;3578;51.568;6.932;2023-02-12T02:48:51;49.60;;;36.53;;
7074;SDS011;3578;51.568;6.932;2023-02-12T02:51:24;49.30;;;37.70;;
7074;SDS011;3578;51.568;6.932;2023-02-12T02:53:57;50.03;;;37.00;;
7074;SDS011;3578;51.568;6.932;2023-02-12T02:56:31;48.47;;;36.10;;
7074;SDS011;3578;51.568;6.932;2023-02-12T02:59:04;46.90;;;35.60;;
7074;SDS011;3578;51.568;6.932;2023-02-12T03:01:37;48.10;;;36.30;;
7074;SDS011;3578;51.568;6.932;2023-02-12T03:04:09;48.00;;;35.30;;
7074;SDS011;3578;51.568;6.932;2023-02-12T03:06:45;47.77;;;36.13;;
7074;SDS011;3578;51.568;6.932;2023-02-12T03:09:20;49.80;;;34.13;;
7074;SDS011;3578;51.568;6.932;2023-02-12T03:11:51;45.43;;;35.60;;
7074;SDS011;3578;51.568;6.932;2023-02-12T03:14:24;47.73;;;34.23;;
7074;SDS011;3578;51.568;6.932;2023-02-12T03:16:58;47.77;;;34.60;;
7074;SDS011;3578;51.568;6.932;2023-02-12T03:19:32;49.27;;;35.20;;
7074;SDS011;3578;51.568;6.932;2023-02-12T03:22:05;43.33;;;33.33;;
7074;SDS011;3578;51.568;6.932;2023-02-12T03:24:36;45.70;;;34.53;;
7074;SDS011;3578;51.568;6.932;2023-02-12T03:27:09;46.30;;;31.70;;
7074;SDS011;3578;51.568;6.932;2023-02-12T03:29:42;46.23;;;32.80;;
7074;SDS011;3578;51.568;6.932;2023-02-12T03:32:14;51.23;;;37.90;;
7074;SDS011;3578;51.568;6.932;2023-02-12T03:34:54;49.93;;;37.17;;
7074;SDS011;3578;51.568;6.932;2023-02-12T03:37:34;41.60;;;32.50;;
7074;SDS011;3578;51.568;6.932;2023-02-12T03:40:07;45.53;;;35.60;;
7074;SDS011;3578;51.568;6.932;2023-02-12T03:42:44;41.90;;;30.97;;
7074;SDS011;3578;51.568;6.932;2023-02-12T03:45:20;44.50;;;33.20;;
7074;SDS011;3578;51.568;6.932;2023-02-12T03:48:00;44.07;;;34.80;;
7074;SDS011;3578;51.568;6.932;2023-02-12T03:50:36;44.10;;;31.40;;
7074;SDS011;3578;51.568;6.932;2023-02-12T03:53:11;45.67;;;33.73;;
7074;SDS011;3578;51.568;6.932;2023-02-12T03:55:39;44.70;;;33.93;;
7074;SDS011;3578;51.568;6.932;2023-02-12T03:58:11;47.70;;;34.50;;
7074;SDS011;3578;51.568;6.932;2023-02-12T04:00:44;46.00;;;35.00;;
7074;SDS011;3578;51.568;6.932;2023-02-12T04:03:13;47.67;;;34.73;;
7074;SDS011;3578;51.568;6.932;2023-02-12T04:05:40;48.67;;;35.73;;
7074;SDS011;3578;51.568;6.932;2023-02-12T04:08:09;47.70;;;36.00;;
7074;SDS011;3578;51.568;6.932;2023-02-12T04:10:41;43.60;;;34.50;;
7074;SDS011;3578;51.568;6.932;2023-02-12T04:13:27;45.60;;;34.43;;
7074;SDS011;3578;51.568;6.932;2023-02-12T04:16:11;42.77;;;33.73;;
7074;SDS011;3578;51.568;6.932;2023-02-12T04:18:49;45.10;;;35.80;;
7074;SDS011;3578;51.568;6.932;2023-02-12T04:21:19;48.23;;;35.80;;
7074;SDS011;3578;51.568;6.932;2023-02-12T04:24:03;50.67;;;36.50;;
7074;SDS011;3578;51.568;6.932;2023-02-12T04:26:41;50.10;;;36.70;;
7074;SDS011;3578;51.568;6.932;2023-02-12T04:29:19;48.20;;;36.20;;
7074;SDS011;3578;51.568;6.932;2023-02-12T04:31:54;48.27;;;36.60;;
7074;SDS011;3578;51.568;6.932;2023-02-12T04:34:31;46.93;;;35.53;;
7074;SDS011;3578;51.568;6.932;2023-02-12T04:37:05;50.10;;;35.43;;
7074;SDS011;3578;51.568;6.932;2023-02-12T04:39:37;44.60;;;33.80;;
7074;SDS011;3578;51.568;6.932;2023-02-12T04:42:06;49.20;;;35.30;;
7074;SDS011;3578;51.568;6.932;2023-02-12T04:44:36;48.33;;;35.07;;
7074;SDS011;3578;51.568;6.932;2023-02-12T04:47:06;45.17;;;33.60;;
7074;SDS011;3578;51.568;6.932;2023-02-12T04:49:34;40.23;;;29.50;;
7074;SDS011;3578;51.568;6.932;2023-02-12T04:52:01;42.33;;;31.40;;
7074;SDS011;3578;51.568;6.932;2023-02-12T04:54:28;55.97;;;34.50;;
7074;SDS011;3578;51.568;6.932;2023-02-12T04:56:55;40.60;;;32.37;;
7074;SDS011;3578;51.568;6.932;2023-02-12T04:59:22;46.23;;;33.13;;
7074;SDS011;3578;51.568;6.932;2023-02-12T05:01:49;46.10;;;35.13;;
7074;SDS011;3578;51.568;6.932;2023-02-12T05:04:16;46.83;;;35.00;;
7074;SDS011;3578;51.568;6.932;2023-02-12T05:06:45;48.33;;;35.00;;
7074;SDS011;3578;51.568;6.932;2023-02-12T05:09:13;50.40;;;36.33;;
7074;SDS011;3578;51.568;6.932;2023-02-12T05:11:43;43.80;;;31.73;;
7074;SDS011;3578;51.568;6.932;2023-02-12T05:14:10;40.70;;;32.43;;
7074;SDS011;3578;51.568;6.932;2023-02-12T05:16:38;44.27;;;34.60;;
7074;SDS011;3578;51.568;6.932;2023-02-12T05:19:05;47.93;;;34.90;;
7074;SDS011;3578;51.568;6.932;2023-02-12T05:21:33;47.97;;;35.90;;
7074;SDS011;3578;51.568;6.932;2023-02-12T05:24:02;44.53;;;33.10;;
7074;SDS011;3578;51.568;6.932;2023-02-12T05:26:29;46.73;;;35.47;;
7074;SDS011;3578;51.568;6.932;2023-02-12T05:28:56;45.00;;;34.10;;
7074;SDS011;3578;51.568;6.932;2023-02-12T05:31:24;45.97;;;34.47;;
7074;SDS011;3578;51.568;6.932;2023-02-12T05:33:51;47.67;;;33.73;;
7074;SDS011;3578;51.568;6.932;2023-02-12T05:36:19;40.00;;;31.57;;
7074;SDS011;3578;51.568;6.932;2023-02-12T05:38:47;45.60;;;33.93;;
7074;SDS011;3578;51.568;6.932;2023-02-12T05:41:19;40.67;;;31.17;;
7074;SDS011;3578;51.568;6.932;2023-02-12T05:43:49;41.07;;;29.90;;
7074;SDS011;3578;51.568;6.932;2023-02-12T05:46:16;40.90;;;30.60;;
7074;SDS011;3578;51.568;6.932;2023-02-12T05:48:44;44.03;;;31.77;;
7074;SDS011;3578;51.568;6.932;2023-02-12T05:51:13;38.93;;;31.07;;
7074;SDS011;3578;51.568;6.932;2023-02-12T05:53:44;45.70;;;33.57;;
7074;SDS011;3578;51.568;6.932;2023-02-12T05:56:13;46.67;;;33.53;;
7074;SDS011;3578;51.568;6.932;2023-02-12T05:58:45;44.23;;;32.40;;
7074;SDS011;3578;51.568;6.932;2023-02-12T06:01:15;52.33;;;36.23;;
7074;SDS011;3578;51.568;6.932;2023-02-12T06:03:44;46.00;;;33.10;;
7074;SDS011;3578;51.568;6.932;2023-02-12T06:06:12;48.43;;;33.67;;
7074;SDS011;3578;51.568;6.932;2023-02-12T06:08:40;41.23;;;30.80;;
7074;SDS011;3578;51.568;6.932;2023-02-12T06:11:09;44.13;;;31.43;;
7074;SDS011;3578;51.568;6.932;2023-02-12T06:13:39;46.30;;;34.53;;
7074;SDS011;3578;51.568;6.932;2023-02-12T06:16:14;55.80;;;35.63;;
7074;SDS011;3578;51.568;6.932;2023-02-12T06:18:43;43.33;;;32.20;;
7074;SDS011;3578;51.568;6.932;2023-02-12T06:21:10;44.73;;;32.97;;
7074;SDS011;3578;51.568;6.932;2023-02-12T06:23:37;48.20;;;34.50;;
7074;SDS011;3578;51.568;6.932;2023-02-12T06:26:04;50.50;;;36.20;;
7074;SDS011;3578;51.568;6.932;2023-02-12T06:28:31;49.03;;;33.70;;
7074;SDS011;3578;51.568;6.932;2023-02-12T06:30:57;46.67;;;33.00;;
7074;SDS011;3578;51.568;6.932;2023-02-12T06:33:26;44.70;;;33.70;;
7074;SDS011;3578;51.568;6.932;2023-02-12T06:35:53;53.03;;;34.63;;
7074;SDS011;3578;51.568;6.932;2023-02-12T06:38:20;48.33;;;35.40;;
7074;SDS011;3578;51.568;6.932;2023-02-12T06:40:47;54.57;;;37.50;;
7074;SDS011;3578;51.568;6.932;2023-02-12T06:43:14;48.90;;;36.10;;
7074;SDS011;3578;51.568;6.932;2023-02-12T06:45:41;44.50;;;33.97;;
7074;SDS011;3578;51.568;6.932;2023-02-12T06:48:08;53.23;;;38.30;;
7074;SDS011;3578;51.568;6.932;2023-02-12T06:50:36;49.87;;;36.83;;
7074;SDS011;3578;51.568;6.932;2023-02-12T06:53:03;56.57;;;38.33;;
7074;SDS011;3578;51.568;6.932;2023-02-12T06:55:30;45.20;;;33.40;;
7074;SDS011;3578;51.568;6.932;2023-02-12T06:57:57;64.57;;;41.23;;
7074;SDS011;3578;51.568;6.932;2023-02-12T07:00:24;55.80;;;40.53;;
7074;SDS011;3578;51.568;6.932;2023-02-12T07:02:51;56.03;;;38.80;;
7074;SDS011;3578;51.568;6.932;2023-02-12T07:05:20;50.37;;;35.83;;
7074;SDS011;3578;51.568;6.932;2023-02-12T07:07:49;54.73;;;39.37;;
7074;SDS011;3578;51.568;6.932;2023-02-12T07:10:17;60.83;;;43.17;;
7074;SDS011;3578;51.568;6.932;2023-02-12T07:12:44;60.47;;;42.17;;
7074;SDS011;3578;51.568;6.932;2023-02-12T07:15:12;60.40;;;41.90;;
7074;SDS011;3578;51.568;6.932;2023-02-12T07:17:40;60.87;;;42.60;;
7074;SDS011;3578;51.568;6.932;2023-02-12T07:20:07;58.00;;;41.13;;
7074;SDS011;3578;51.568;6.932;2023-02-12T07:22:35;58.50;;;40.70;;
7074;SDS011;3578;51.568;6.932;2023-02-12T07:25:04;56.17;;;40.57;;
7074;SDS011;3578;51.568;6.932;2023-02-12T07:27:31;46.23;;;35.50;;
7074;SDS011;3578;51.568;6.932;2023-02-12T07:30:02;58.60;;;41.37;;
7074;SDS011;3578;51.568;6.932;2023-02-12T07:32:30;54.43;;;38.57;;
7074;SDS011;3578;51.568;6.932;2023-02-12T07:34:57;52.80;;;39.07;;
7074;SDS011;3578;51.568;6.932;2023-02-12T07:37:24;58.23;;;38.70;;
7074;SDS011;3578;51.568;6.932;2023-02-12T07:39:51;45.67;;;35.47;;
7074;SDS011;3578;51.568;6.932;2023-02-12T07:42:20;53.33;;;38.00;;
7074;SDS011;3578;51.568;6.932;2023-02-12T07:44:47;58.30;;;39.03;;
7074;SDS011;3578;51.568;6.932;2023-02-12T07:47:14;54.40;;;39.70;;
7074;SDS011;3578;51.568;6.932;2023-02-12T07:49:41;58.70;;;40.20;;
7074;SDS011;3578;51.568;6.932;2023-02-12T07:52:08;59.30;;;39.60;;
7074;SDS011;3578;51.568;6.932;2023-02-12T07:54:36;54.03;;;40.20;;
7074;SDS011;3578;51.568;6.932;2023-02-12T07:57:03;55.00;;;40.37;;
7074;SDS011;3578;51.568;6.932;2023-02-12T07:59:31;60.93;;;43.10;;
7074;SDS011;3578;51.568;6.932;2023-02-12T08:01:58;53.90;;;37.00;;
7074;SDS011;3578;51.568;6.932;2023-02-12T08:04:25;50.43;;;37.07;;
7074;SDS011;3578;51.568;6.932;2023-02-12T08:06:53;49.73;;;35.37;;
7074;SDS011;3578;51.568;6.932;2023-02-12T08:09:21;52.93;;;38.70;;
7074;SDS011;3578;51.568;6.932;2023-02-12T08:11:51;54.83;;;39.20;;
7074;SDS011;3578;51.568;6.932;2023-02-12T08:14:19;60.43;;;42.23;;
7074;SDS011;3578;51.568;6.932;2023-02-12T08:16:48;51.40;;;38.73;;
7074;SDS011;3578;51.568;6.932;2023-02-12T08:19:16;48.50;;;35.70;;
7074;SDS011;3578;51.568;6.932;2023-02-12T08:21:43;52.47;;;39.50;;
7074;SDS011;3578;51.568;6.932;2023-02-12T08:24:11;51.63;;;41.13;;
7074;SDS011;3578;51.568;6.932;2023-02-12T08:26:39;55.37;;;42.47;;
7074;SDS011;3578;51.568;6.932;2023-02-12T08:29:07;55.53;;;41.47;;
7074;SDS011;3578;51.568;6.932;2023-02-12T08:31:37;51.57;;;39.53;;
7074;SDS011;3578;51.568;6.932;2023-02-12T08:34:11;53.03;;;40.47;;
7074;SDS011;3578;51.568;6.932;2023-02-12T08:36:43;52.93;;;39.27;;
7074;SDS011;3578;51.568;6.932;2023-02-12T08:39:12;50.83;;;39.53;;
7074;SDS011;3578;51.568;6.932;2023-02-12T08:41:39;52.93;;;39.43;;
7074;SDS011;3578;51.568;6.932;2023-02-12T08:44:07;43.80;;;34.50;;
7074;SDS011;3578;51.568;6.932;2023-02-12T08:46:36;53.40;;;39.00;;
7074;SDS011;3578;51.568;6.932;2023-02-12T08:49:06;50.37;;;39.43;;
7074;SDS011;3578;51.568;6.932;2023-02-12T08:51:39;50.87;;;38.63;;
7074;SDS011;3578;51.568;6.932;2023-02-12T08:54:09;49.77;;;37.30;;
7074;SDS011;3578;51.568;6.932;2023-02-12T08:56:41;46.20;;;37.03;;
7074;SDS011;3578;51.568;6.932;2023-02-12T08:59:10;49.90;;;37.73;;
7074;SDS011;3578;51.568;6.932;2023-02-12T09:01:38;47.33;;;36.90;;
7074;SDS011;3578;51.568;6.932;2023-02-12T09:04:06;45.37;;;37.23;;
7074;SDS011;3578;51.568;6.932;2023-02-12T09:06:38;47.33;;;36.00;;
7074;SDS011;3578;51.568;6.932;2023-02-12T09:09:05;49.50;;;37.67;;
7074;SDS011;3578;51.568;6.932;2023-02-12T09:11:32;46.07;;;36.23;;
7074;SDS011;3578;51.568;6.932;2023-02-12T09:14:03;51.73;;;37.30;;
7074;SDS011;3578;51.568;6.932;2023-02-12T09:16:33;51.67;;;36.70;;
7074;SDS011;3578;51.568;6.932;2023-02-12T09:19:03;50.60;;;37.83;;
7074;SDS011;3578;51.568;6.932;2023-02-12T09:21:30;48.40;;;35.97;;
7074;SDS011;3578;51.568;6.932;2023-02-12T09:23:59;48.17;;;35.47;;
7074;SDS011;3578;51.568;6.932;2023-02-12T09:26:27;46.37;;;36.00;;
7074;SDS011;3578;51.568;6.932;2023-02-12T09:28:54;46.80;;;36.73;;
7074;SDS011;3578;51.568;6.932;2023-02-12T09:31:22;44.70;;;34.87;;
7074;SDS011;3578;51.568;6.932;2023-02-12T09:33:51;46.63;;;35.10;;
7074;SDS011;3578;51.568;6.932;2023-02-12T09:36:19;43.80;;;35.57;;
7074;SDS011;3578;51.568;6.932;2023-02-12T09:38:46;47.60;;;34.43;;
7074;SDS011;3578;51.568;6.932;2023-02-12T09:41:28;43.40;;;35.70;;
7074;SDS011;3578;51.568;6.932;2023-02-12T09:44:14;51.43;;;36.03;;
7074;SDS011;3578;51.568;6.932;2023-02-12T09:46:48;41.63;;;34.70;;
7074;SDS011;3578;51.568;6.932;2023-02-12T09:49:25;43.80;;;35.10;;
7074;SDS011;3578;51.568;6.932;2023-02-12T09:52:23;41.33;;;33.70;;
7074;SDS011;3578;51.568;6.932;2023-02-12T09:54:53;41.43;;;32.97;;
7074;SDS011;3578;51.568;6.932;2023-02-12T09:57:24;39.27;;;32.40;;
7074;SDS011;3578;51.568;6.932;2023-02-12T09:59:57;42.57;;;32.87;;
7074;SDS011;3578;51.568;6.932;2023-02-12T10:02:27;44.93;;;32.57;;
7074;SDS011;3578;51.568;6.932;2023-02-12T10:04:54;43.43;;;34.30;;
7074;SDS011;3578;51.568;6.932;2023-02-12T10:07:25;39.93;;;30.60;;
7074;SDS011;3578;51.568;6.932;2023-02-12T10:10:09;43.03;;;30.70;;
7074;SDS011;3578;51.568;6.932;2023-02-12T10:12:54;35.97;;;29.83;;
7074;SDS011;3578;51.568;6.932;2023-02-12T10:15:32;34.73;;;28.87;;
7074;SDS011;3578;51.568;6.932;2023-02-12T10:18:10;41.40;;;29.90;;
7074;SDS011;3578;51.568;6.932;2023-02-12T10:21:10;37.17;;;28.50;;
7074;SDS011;3578;51.568;6.932;2023-02-12T10:24:02;36.60;;;28.33;;
7074;SDS011;3578;51.568;6.932;2023-02-12T10:26:45;41.47;;;30.90;;
7074;SDS011;3578;51.568;6.932;2023-02-12T10:29:16;36.50;;;29.40;;
7074;SDS011;3578;51.568;6.932;2023-02-12T10:31:48;36.60;;;29.53;;
7074;SDS011;3578;51.568;6.932;2023-02-12T10:34:20;34.70;;;28.77;;
7074;SDS011;3578;51.568;6.932;2023-02-12T10:36:52;34.30;;;27.40;;
7074;SDS011;3578;51.568;6.932;2023-02-12T10:39:28;32.60;;;28.53;;
7074;SDS011;3578;51.568;6.932;2023-02-12T10:42:01;38.27;;;28.77;;
7074;SDS011;3578;51.568;6.932;2023-02-12T10:44:38;35.43;;;28.27;;
7074;SDS011;3578;51.568;6.932;2023-02-12T10:47:05;34.83;;;28.50;;
7074;SDS011;3578;51.568;6.932;2023-02-12T10:49:32;40.10;;;26.57;;
7074;SDS011;3578;51.568;6.932;2023-02-12T10:52:06;34.80;;;26.80;;
7074;SDS011;3578;51.568;6.932;2023-02-12T10:54:40;33.63;;;27.23;;
7074;SDS011;3578;51.568;6.932;2023-02-12T10:57:10;34.60;;;26.87;;
7074;SDS011;3578;51.568;6.932;2023-02-12T10:59:49;28.87;;;24.90;;
7074;SDS011;3578;51.568;6.932;2023-02-12T11:02:22;29.00;;;24.30;;
7074;SDS011;3578;51.568;6.932;2023-02-12T11:04:52;33.20;;;25.03;;
7074;SDS011;3578;51.568;6.932;2023-02-12T11:07:22;33.30;;;26.50;;
7074;SDS011;3578;51.568;6.932;2023-02-12T11:09:51;31.73;;;26.90;;
7074;SDS011;3578;51.568;6.932;2023-02-12T11:12:28;29.63;;;25.73;;
7074;SDS011;3578;51.568;6.932;2023-02-12T11:15:02;32.40;;;26.73;;
7074;SDS011;3578;51.568;6.932;2023-02-12T11:17:39;32.47;;;26.00;;
7074;SDS011;3578;51.568;6.932;2023-02-12T11:20:19;32.93;;;25.93;;
7074;SDS011;3578;51.568;6.932;2023-02-12T11:22:50;32.13;;;24.87;;
7074;SDS011;3578;51.568;6.932;2023-02-12T11:25:20;29.57;;;25.60;;
7074;SDS011;3578;51.568;6.932;2023-02-12T11:30:51;30.90;;;26.57;;
7074;SDS011;3578;51.568;6.932;2023-02-12T11:33:23;30.67;;;27.20;;
7074;SDS011;3578;51.568;6.932;2023-02-12T11:35:59;40.20;;;27.20;;
7074;SDS011;3578;51.568;6.932;2023-02-12T11:38:31;34.90;;;26.03;;
7074;SDS011;3578;51.568;6.932;2023-02-12T11:43:49;32.37;;;25.67;;
7074;SDS011;3578;51.568;6.932;2023-02-12T11:46:19;34.07;;;26.90;;
7074;SDS011;3578;51.568;6.932;2023-02-12T11:48:50;31.20;;;25.43;;
7074;SDS011;3578;51.568;6.932;2023-02-12T11:51:20;32.77;;;27.17;;
7074;SDS011;3578;51.568;6.932;2023-02-12T11:53:50;30.60;;;25.63;;
7074;SDS011;3578;51.568;6.932;2023-02-12T11:56:20;28.07;;;24.07;;
7074;SDS011;3578;51.568;6.932;2023-02-12T11:58:48;31.53;;;24.50;;
7074;SDS011;3578;51.568;6.932;2023-02-12T12:01:17;31.33;;;24.53;;
7074;SDS011;3578;51.568;6.932;2023-02-12T12:03:53;30.53;;;26.33;;
7074;SDS011;3578;51.568;6.932;2023-02-12T12:06:30;32.10;;;25.43;;
7074;SDS011;3578;51.568;6.932;2023-02-12T12:09:03;30.83;;;24.27;;
7074;SDS011;3578;51.568;6.932;2023-02-12T12:11:40;32.33;;;24.10;;
7074;SDS011;3578;51.568;6.932;2023-02-12T12:14:21;27.33;;;24.07;;
7074;SDS011;3578;51.568;6.932;2023-02-12T12:16:57;28.00;;;24.03;;
7074;SDS011;3578;51.568;6.932;2023-02-12T12:19:48;28.40;;;22.87;;
7074;SDS011;3578;51.568;6.932;2023-02-12T12:22:34;28.60;;;24.10;;
7074;SDS011;3578;51.568;6.932;2023-02-12T12:25:12;31.90;;;24.30;;
7074;SDS011;3578;51.568;6.932;2023-02-12T12:27:55;29.27;;;23.07;;
7074;SDS011;3578;51.568;6.932;2023-02-12T12:30:31;32.20;;;24.10;;
7074;SDS011;3578;51.568;6.932;2023-02-12T12:33:16;29.13;;;23.00;;
7074;SDS011;3578;51.568;6.932;2023-02-12T12:35:52;33.30;;;24.20;;
7074;SDS011;3578;51.568;6.932;2023-02-12T12:38:37;31.40;;;25.50;;
7074;SDS011;3578;51.568;6.932;2023-02-12T12:41:17;31.40;;;24.77;;
7074;SDS011;3578;51.568;6.932;2023-02-12T12:43:56;29.93;;;24.40;;
7074;SDS011;3578;51.568;6.932;2023-02-12T12:46:39;29.23;;;24.77;;
7074;SDS011;3578;51.568;6.932;2023-02-12T12:49:24;30.90;;;23.80;;
7074;SDS011;3578;51.568;6.932;2023-02-12T12:55:07;31.40;;;24.87;;
7074;SDS011;3578;51.568;6.932;2023-02-12T12:57:58;33.30;;;23.97;;
7074;SDS011;3578;51.568;6.932;2023-02-12T13:00:38;30.27;;;25.33;;
7074;SDS011;3578;51.568;6.932;2023-02-12T13:03:30;29.00;;;23.47;;
7074;SDS011;3578;51.568;6.932;2023-02-12T13:06:47;33.17;;;24.80;;
7074;SDS011;3578;51.568;6.932;2023-02-12T13:09:36;33.17;;;26.03;;
7074;SDS011;3578;51.568;6.932;2023-02-12T13:12:32;32.17;;;26.40;;
7074;SDS011;3578;51.568;6.932;2023-02-12T13:15:14;30.30;;;25.00;;
7074;SDS011;3578;51.568;6.932;2023-02-12T13:17:50;33.90;;;24.80;;
7074;SDS011;3578;51.568;6.932;2023-02-12T13:20:30;31.40;;;25.10;;
7074;SDS011;3578;51.568;6.932;2023-02-12T13:23:10;31.07;;;25.40;;
7074;SDS011;3578;51.568;6.932;2023-02-12T13:25:43;28.07;;;23.47;;
7074;SDS011;3578;51.568;6.932;2023-02-12T13:28:20;31.23;;;24.20;;
7074;SDS011;3578;51.568;6.932;2023-02-12T13:30:54;31.80;;;25.27;;
7074;SDS011;3578;51.568;6.932;2023-02-12T13:33:24;36.27;;;26.60;;
7074;SDS011;3578;51.568;6.932;2023-02-12T13:35:59;35.60;;;27.10;;
7074;SDS011;3578;51.568;6.932;2023-02-12T13:38:33;39.27;;;27.47;;
7074;SDS011;3578;51.568;6.932;2023-02-12T13:41:06;34.43;;;27.30;;
7074;SDS011;3578;51.568;6.932;2023-02-12T13:43:43;32.90;;;24.97;;
7074;SDS011;3578;51.568;6.932;2023-02-12T13:46:23;36.10;;;26.30;;
7074;SDS011;3578;51.568;6.932;2023-02-12T13:49:02;34.20;;;27.13;;
7074;SDS011;3578;51.568;6.932;2023-02-12T13:51:40;35.00;;;25.67;;
7074;SDS011;3578;51.568;6.932;2023-02-12T13:54:18;36.03;;;26.10;;
7074;SDS011;3578;51.568;6.932;2023-02-12T13:57:02;31.73;;;23.90;;
7074;SDS011;3578;51.568;6.932;2023-02-12T13:59:38;31.40;;;23.30;;
7074;SDS011;3578;51.568;6.932;2023-02-12T14:05:22;31.57;;;26.20;;
7074;SDS011;3578;51.568;6.932;2023-02-12T14:07:57;29.63;;;22.83;;
7074;SDS011;3578;51.568;6.932;2023-02-12T14:10:30;28.10;;;24.13;;
7074;SDS011;3578;51.568;6.932;2023-02-12T14:13:11;29.43;;;23.63;;
7074;SDS011;3578;51.568;6.932;2023-02-12T14:15:46;31.30;;;24.97;;
7074;SDS011;3578;51.568;6.932;2023-02-12T14:18:21;33.33;;;25.20;;
7074;SDS011;3578;51.568;6.932;2023-02-12T14:27:29;39.37;;;23.80;;
7074;SDS011;3578;51.568;6.932;2023-02-12T14:33:08;29.40;;;24.50;;
7074;SDS011;3578;51.568;6.932;2023-02-12T14:39:04;25.60;;;21.87;;
7074;SDS011;3578;51.568;6.932;2023-02-12T14:41:54;28.63;;;23.30;;
7074;SDS011;3578;51.568;6.932;2023-02-12T14:44:47;33.07;;;25.23;;
7074;SDS011;3578;51.568;6.932;2023-02-12T14:50:21;30.77;;;24.60;;
7074;SDS011;3578;51.568;6.932;2023-02-12T14:52:57;28.47;;;23.20;;
7074;SDS011;3578;51.568;6.932;2023-02-12T14:55:32;28.60;;;23.40;;
7074;SDS011;3578;51.568;6.932;2023-02-12T14:58:02;28.13;;;23.80;;
7074;SDS011;3578;51.568;6.932;2023-02-12T15:00:35;30.87;;;23.77;;
7074;SDS011;3578;51.568;6.932;2023-02-12T15:03:15;28.00;;;23.73;;
7074;SDS011;3578;51.568;6.932;2023-02-12T15:05:59;27.57;;;22.77;;
7074;SDS011;3578;51.568;6.932;2023-02-12T15:08:36;30.70;;;24.00;;
7074;SDS011;3578;51.568;6.932;2023-02-12T15:11:20;27.27;;;23.90;;
7074;SDS011;3578;51.568;6.932;2023-02-12T15:13:56;31.80;;;25.03;;
7074;SDS011;3578;51.568;6.932;2023-02-12T15:16:34;31.67;;;23.83;;
7074;SDS011;3578;51.568;6.932;2023-02-12T15:19:19;30.50;;;24.70;;
7074;SDS011;3578;51.568;6.932;2023-02-12T15:22:08;29.90;;;24.60;;
7074;SDS011;3578;51.568;6.932;2023-02-12T15:24:46;32.57;;;24.73;;
7074;SDS011;3578;51.568;6.932;2023-02-12T15:27:14;26.77;;;22.60;;
7074;SDS011;3578;51.568;6.932;2023-02-12T15:29:42;29.87;;;24.40;;
7074;SDS011;3578;51.568;6.932;2023-02-12T15:32:16;32.27;;;24.80;;
7074;SDS011;3578;51.568;6.932;2023-02-12T15:34:49;27.90;;;24.67;;
7074;SDS011;3578;51.568;6.932;2023-02-12T15:37:19;29.20;;;25.30;;
7074;SDS011;3578;51.568;6.932;2023-02-12T15:39:50;28.10;;;24.43;;
7074;SDS011;3578;51.568;6.932;2023-02-12T15:42:25;31.00;;;24.03;;
7074;SDS011;3578;51.568;6.932;2023-02-12T15:45:07;31.20;;;24.37;;
7074;SDS011;3578;51.568;6.932;2023-02-12T15:47:55;29.47;;;25.13;;
7074;SDS011;3578;51.568;6.932;2023-02-12T15:50:26;31.73;;;25.83;;
7074;SDS011;3578;51.568;6.932;2023-02-12T15:52:56;31.50;;;25.53;;
7074;SDS011;3578;51.568;6.932;2023-02-12T15:55:24;33.20;;;25.10;;
7074;SDS011;3578;51.568;6.932;2023-02-12T15:57:55;27.70;;;24.57;;